CDC weather

Cedar City Regional Airport
Cedar City, Utah, United States

Public forecast

Using degrees Fahrenheit for public forecast. Weather courtesy of forecast.io.

Current aviation weather report (METAR) for Cedar City Regional Airport

Retrieved 2020/05/25 00:53 UTC (18 minutes ago):

KCDC 250053Z AUTO 02010G20KT 10SM CLR 17/M07 A3007 RMK AO2 SLP153 T01721067

Aviation forecast (TAF) for Cedar City Regional Airport

Retrieved 2020-05-25 00:46 UTC (25 minutes ago):

TAF KCDC 242344Z 2500/2524 01010G20KT P6SM SKC FM250200 02007KT P6SM SKC